Glens Falls, New York
Current Conditions -  °F | °C
As of 3:53 AM on Saturday 29 Nov 2014 (Local Time) from KGFL Reporting Station
Overcast Overcast  
Wind Chill: 14°   Ceiling: 11000
Heat Index: 14°   Visibility: 10mi
Dew Point: 10°   Wind: 0mph
Humidity: 84%   Direction: NA
Pressure: 30.25"   Gusts: NA
Location:  43.31°N, 73.64°W
Report Text: KGFL 290853Z AUTO 00000KT 10SM OVC110 M10/M12 A3025 RMK AO2 SLP255 I3000 T11001122 51009
Loading
Personal Weather Stations






























Interactive Weather Map New forecast layout! Learn more

10-Day Weather Forecast

Advertisements
Track Severe Weather on mobile